createdAt,value
2023-10-24T00:00:11.830Z,98940.22
2023-10-24T00:01:13.528Z,98939.94
2023-10-24T00:02:15.381Z,98927.09
2023-10-24T00:03:17.107Z,98936.22
2023-10-24T00:04:18.931Z,98943.41
2023-10-24T00:05:20.737Z,98942.66
2023-10-24T00:06:22.397Z,98945.06
2023-10-24T00:07:24.139Z,98940.31
2023-10-24T00:08:25.742Z,98932.06
2023-10-24T00:09:27.426Z,98933.91
2023-10-24T00:10:29.237Z,98937.94
2023-10-24T00:11:30.985Z,98931.81
2023-10-24T00:12:32.666Z,98928.31
2023-10-24T00:13:34.406Z,98927.53
2023-10-24T00:14:36.175Z,98932.28
2023-10-24T00:15:37.819Z,98920.50
2023-10-24T00:16:39.466Z,98921.31
2023-10-24T00:17:41.230Z,98923.63
2023-10-24T00:18:43.671Z,98934.09
2023-10-24T00:19:45.391Z,98929.31
2023-10-24T00:20:47.118Z,98930.38
2023-10-24T00:21:48.758Z,98929.31
2023-10-24T00:22:50.353Z,98931.41
2023-10-24T00:23:53.340Z,98933.56
2023-10-24T00:24:55.062Z,98927.41
2023-10-24T00:25:56.738Z,98928.47
2023-10-24T00:26:59.057Z,98923.13
2023-10-24T00:28:00.822Z,98924.75
2023-10-24T00:29:02.422Z,98917.22
2023-10-24T00:30:04.601Z,98927.66
2023-10-24T00:31:08.578Z,98927.34
2023-10-24T00:32:12.714Z,98924.09
2023-10-24T00:33:14.562Z,98926.41
2023-10-24T00:34:17.837Z,98921.50
2023-10-24T00:35:19.524Z,98931.63
2023-10-24T00:36:21.661Z,98915.78
2023-10-24T00:37:23.352Z,98928.63
2023-10-24T00:38:24.922Z,98929.44
2023-10-24T00:39:26.532Z,98922.72
2023-10-24T00:40:28.287Z,98930.81
2023-10-24T00:41:30.108Z,98931.38
2023-10-24T00:42:31.713Z,98929.19
2023-10-24T00:43:33.450Z,98927.94
2023-10-24T00:44:35.228Z,98924.69
2023-10-24T00:45:37.236Z,98925.69
2023-10-24T00:46:41.091Z,98918.25
2023-10-24T00:47:42.884Z,98920.84
2023-10-24T00:48:44.673Z,98916.25
2023-10-24T00:49:46.801Z,98917.88
2023-10-24T00:50:48.708Z,98912.28
2023-10-24T00:51:50.458Z,98923.03
2023-10-24T00:52:52.170Z,98919.84
2023-10-24T00:53:55.262Z,98915.03
2023-10-24T00:54:57.415Z,98917.63
2023-10-24T00:55:59.810Z,98918.19
2023-10-24T00:57:04.509Z,98917.78
2023-10-24T00:58:07.620Z,98919.06
2023-10-24T00:59:09.637Z,98917.38
2023-10-24T01:00:12.607Z,98920.28
2023-10-24T01:01:15.962Z,98919.22
2023-10-24T01:02:18.579Z,98917.59
2023-10-24T01:03:20.663Z,98911.41
2023-10-24T01:04:23.329Z,98923.75
2023-10-24T01:05:25.720Z,98918.34
2023-10-24T01:06:27.489Z,98913.25
2023-10-24T01:07:29.421Z,98920.78
2023-10-24T01:08:31.005Z,98924.72
2023-10-24T01:09:32.980Z,98918.84
2023-10-24T01:10:34.869Z,98916.16
2023-10-24T01:11:36.534Z,98918.59
2023-10-24T01:12:38.873Z,98911.88
2023-10-24T01:13:40.962Z,98924.25
2023-10-24T01:14:42.838Z,98906.81
2023-10-24T01:15:44.577Z,98918.84
2023-10-24T01:16:46.799Z,98919.88
2023-10-24T01:17:52.428Z,98913.19
2023-10-24T01:18:54.066Z,98916.16
2023-10-24T01:19:55.653Z,98915.13
2023-10-24T01:20:57.211Z,98904.69
2023-10-24T01:21:58.929Z,98911.41
2023-10-24T01:23:01.920Z,98912.94
2023-10-24T01:24:03.667Z,98911.50
2023-10-24T01:25:14.254Z,98920.31
2023-10-24T01:26:18.433Z,98914.75
2023-10-24T01:27:22.363Z,98918.28
2023-10-24T01:28:26.925Z,98909.56
2023-10-24T01:29:28.652Z,98914.13
2023-10-24T01:30:30.256Z,98908.56
2023-10-24T01:31:32.411Z,98879.19
2023-10-24T01:32:34.213Z,98911.88
2023-10-24T01:33:35.867Z,98919.06
2023-10-24T01:34:37.486Z,98912.94
2023-10-24T01:35:39.192Z,98920.53
2023-10-24T01:36:40.760Z,98918.09
2023-10-24T01:37:42.455Z,98907.44
2023-10-24T01:38:44.108Z,98920.03
2023-10-24T01:39:45.695Z,98917.38
2023-10-24T01:40:47.351Z,98920.03
2023-10-24T01:41:48.930Z,98917.63
2023-10-24T01:42:50.566Z,98914.72
2023-10-24T01:43:53.200Z,98909.25
2023-10-24T01:44:55.018Z,98920.53
2023-10-24T01:45:56.630Z,98912.16
2023-10-24T01:46:58.291Z,98914.22
2023-10-24T01:47:59.941Z,98913.31
2023-10-24T01:49:01.587Z,98911.66
2023-10-24T01:50:04.487Z,98918.59
2023-10-24T01:51:06.159Z,98912.13
2023-10-24T01:52:07.748Z,98914.06
2023-10-24T01:53:09.366Z,98907.13
2023-10-24T01:54:10.953Z,98911.47
2023-10-24T01:55:12.714Z,98912.94
2023-10-24T01:56:14.685Z,98915.88
2023-10-24T01:57:17.043Z,98912.78
2023-10-24T01:58:18.672Z,98913.91
2023-10-24T01:59:20.308Z,98910.19
2023-10-24T02:00:22.083Z,98909.63
2023-10-24T02:01:23.744Z,98907.56
2023-10-24T02:02:27.794Z,98911.84
2023-10-24T02:03:29.704Z,98906.00
2023-10-24T02:04:31.417Z,98911.38
2023-10-24T02:05:33.071Z,98909.69
2023-10-24T02:06:34.722Z,98898.59
2023-10-24T02:07:36.365Z,98909.38
2023-10-24T02:08:38.229Z,98905.91
2023-10-24T02:09:39.771Z,98916.09
2023-10-24T02:10:41.328Z,98910.19
2023-10-24T02:11:42.950Z,98915.03
2023-10-24T02:12:44.614Z,98904.84
2023-10-24T02:13:46.318Z,98913.41
2023-10-24T02:14:47.900Z,98906.47
2023-10-24T02:15:49.547Z,98913.41
2023-10-24T02:16:51.268Z,98911.25
2023-10-24T02:17:52.976Z,98917.69
2023-10-24T02:18:54.551Z,98909.38
2023-10-24T02:19:56.168Z,98917.69
2023-10-24T02:20:57.733Z,98908.56
2023-10-24T02:21:59.334Z,98915.66
2023-10-24T02:23:01.120Z,98912.13
2023-10-24T02:24:02.736Z,98912.03
2023-10-24T02:25:04.686Z,98915.69
2023-10-24T02:26:06.365Z,98914.66
2023-10-24T02:27:08.209Z,98919.41
2023-10-24T02:28:09.834Z,98913.66
2023-10-24T02:29:11.454Z,98919.72
2023-10-24T02:30:13.134Z,98923.78
2023-10-24T02:31:15.744Z,98925.13
2023-10-24T02:32:18.090Z,98924.88
2023-10-24T02:33:19.848Z,98922.72
2023-10-24T02:34:22.491Z,98924.41
2023-10-24T02:35:24.091Z,98927.81
2023-10-24T02:36:25.688Z,98930.25
2023-10-24T02:37:27.670Z,98928.94
2023-10-24T02:38:29.261Z,98926.03
2023-10-24T02:39:30.915Z,98917.72
2023-10-24T02:40:32.492Z,98923.06
2023-10-24T02:41:34.168Z,98940.38
2023-10-24T02:42:36.077Z,98937.97
2023-10-24T02:43:37.761Z,98931.84
2023-10-24T02:44:39.664Z,98925.72
2023-10-24T02:45:41.478Z,98930.31
2023-10-24T02:46:43.228Z,98935.06
2023-10-24T02:47:45.019Z,98931.84
2023-10-24T02:48:47.322Z,98936.69
2023-10-24T02:49:49.040Z,98941.19
2023-10-24T02:50:56.913Z,98941.53
2023-10-24T02:51:58.486Z,98935.63
2023-10-24T02:53:02.499Z,98943.16
2023-10-24T02:54:04.362Z,98928.69
2023-10-24T02:55:07.423Z,98935.16
2023-10-24T02:56:09.102Z,98920.41
2023-10-24T02:57:10.867Z,98940.09
2023-10-24T02:58:12.713Z,98940.56
2023-10-24T02:59:14.375Z,98936.03
2023-10-24T03:00:16.588Z,98944.38
2023-10-24T03:01:19.109Z,98933.94
2023-10-24T03:02:21.466Z,98942.56
2023-10-24T03:03:23.196Z,98934.50
2023-10-24T03:04:24.956Z,98941.13
2023-10-24T03:05:27.985Z,98928.78
2023-10-24T03:06:29.581Z,98929.88
2023-10-24T03:07:31.748Z,98943.78
2023-10-24T03:08:33.448Z,98928.59
2023-10-24T03:09:36.371Z,98937.31
2023-10-24T03:10:41.915Z,98929.56
2023-10-24T03:11:43.594Z,98939.03
2023-10-24T03:12:45.153Z,98923.84
2023-10-24T03:13:46.982Z,98924.56
2023-10-24T03:14:48.645Z,98927.00
2023-10-24T03:15:50.213Z,98926.19
2023-10-24T03:16:51.923Z,98929.41
2023-10-24T03:17:53.616Z,98928.69
2023-10-24T03:18:55.293Z,98930.56
2023-10-24T03:19:56.989Z,98929.81
2023-10-24T03:20:59.230Z,98927.16
2023-10-24T03:22:01.353Z,98916.66
2023-10-24T03:23:03.260Z,98925.53
2023-10-24T03:24:05.107Z,98927.38
2023-10-24T03:25:07.525Z,98927.16
2023-10-24T03:26:09.180Z,98927.66
2023-10-24T03:27:14.042Z,98930.63
2023-10-24T03:28:15.961Z,98936.75
2023-10-24T03:29:17.594Z,98938.63
2023-10-24T03:30:19.320Z,98939.09
2023-10-24T03:31:21.069Z,98935.38
2023-10-24T03:32:22.736Z,98940.53
2023-10-24T03:33:24.327Z,98934.00
2023-10-24T03:34:27.022Z,98933.53
2023-10-24T03:35:28.653Z,98936.19
2023-10-24T03:36:30.355Z,98929.56
2023-10-24T03:37:32.251Z,98930.34
2023-10-24T03:38:33.920Z,98938.34
2023-10-24T03:39:35.696Z,98937.00
2023-10-24T03:40:39.391Z,98933.59
2023-10-24T03:41:41.084Z,98933.59
2023-10-24T03:42:42.808Z,98941.00
2023-10-24T03:43:49.646Z,98945.53
2023-10-24T03:44:52.654Z,98942.31
2023-10-24T03:45:54.279Z,98944.19
2023-10-24T03:46:56.015Z,98936.66
2023-10-24T03:47:57.994Z,98944.19
2023-10-24T03:48:59.672Z,98950.63
2023-10-24T03:50:01.277Z,98952.16
2023-10-24T03:51:03.150Z,98951.59
2023-10-24T03:52:06.575Z,98948.34
2023-10-24T03:53:08.633Z,98948.59
2023-10-24T03:54:10.462Z,98946.63
2023-10-24T03:55:12.824Z,98940.09
2023-10-24T03:56:14.400Z,98954.22
2023-10-24T03:57:15.952Z,98936.84
2023-10-24T03:58:17.607Z,98953.50
2023-10-24T03:59:19.200Z,98947.16
2023-10-24T04:00:21.026Z,98936.97
2023-10-24T04:01:22.630Z,98950.84
2023-10-24T04:02:24.297Z,98950.84
2023-10-24T04:03:26.130Z,98957.78
2023-10-24T04:04:27.844Z,98952.13
2023-10-24T04:05:33.615Z,98946.69
2023-10-24T04:06:35.604Z,98946.97
2023-10-24T04:07:37.246Z,98946.28
2023-10-24T04:08:39.796Z,98934.03
2023-10-24T04:09:41.460Z,98946.84
2023-10-24T04:10:43.165Z,98944.66
2023-10-24T04:11:44.796Z,98942.91
2023-10-24T04:12:46.410Z,98948.47
2023-10-24T04:13:48.177Z,98951.13
2023-10-24T04:14:49.829Z,98952.75
2023-10-24T04:15:58.097Z,98945.47
2023-10-24T04:16:59.789Z,98942.91
2023-10-24T04:18:01.516Z,98953.88
2023-10-24T04:19:03.508Z,98947.75
2023-10-24T04:20:07.674Z,98955.72
2023-10-24T04:21:09.332Z,98957.63
2023-10-24T04:22:10.914Z,98950.41
2023-10-24T04:23:18.017Z,98947.50
2023-10-24T04:24:19.572Z,98957.63
2023-10-24T04:25:21.277Z,98960.28
2023-10-24T04:26:22.932Z,98950.41
2023-10-24T04:27:25.984Z,98963.47
2023-10-24T04:28:27.615Z,98966.16
2023-10-24T04:29:30.985Z,98956.31
2023-10-24T04:30:32.613Z,98963.81
2023-10-24T04:31:34.740Z,98950.97
2023-10-24T04:32:36.516Z,98957.91
2023-10-24T04:33:38.685Z,98959.78
2023-10-24T04:34:40.616Z,98952.03
2023-10-24T04:35:48.384Z,98955.31
2023-10-24T04:36:50.114Z,98966.44
2023-10-24T04:37:51.973Z,98965.88
2023-10-24T04:38:53.580Z,98962.41
2023-10-24T04:39:56.143Z,98939.97
2023-10-24T04:40:57.788Z,98962.66
2023-10-24T04:41:59.622Z,98962.28
2023-10-24T04:43:01.276Z,98967.25
2023-10-24T04:44:02.842Z,98973.06
2023-10-24T04:45:04.726Z,98974.09
2023-10-24T04:46:06.373Z,98970.94
2023-10-24T04:47:08.000Z,98980.44
2023-10-24T04:48:09.896Z,98980.44
2023-10-24T04:49:11.472Z,98978.59
2023-10-24T04:50:14.539Z,98982.09
2023-10-24T04:51:16.212Z,98987.16
2023-10-24T04:52:17.870Z,98979.19
2023-10-24T04:53:20.348Z,98988.63
2023-10-24T04:54:22.070Z,98989.09
2023-10-24T04:55:27.684Z,98989.44
2023-10-24T04:56:29.987Z,98989.22
2023-10-24T04:57:31.647Z,98992.34
2023-10-24T04:58:33.247Z,98991.53
2023-10-24T04:59:35.126Z,98989.91
2023-10-24T05:00:36.738Z,98995.00
2023-10-24T05:01:41.486Z,98996.84
2023-10-24T05:02:45.300Z,98993.38
2023-10-24T05:03:46.922Z,98990.94
2023-10-24T05:04:48.713Z,99004.72
2023-10-24T05:05:50.480Z,99005.03
2023-10-24T05:06:52.412Z,99007.22
2023-10-24T05:07:54.138Z,99009.88
2023-10-24T05:08:56.582Z,99013.94
2023-10-24T05:09:58.193Z,99014.75
2023-10-24T05:10:59.836Z,99011.84
2023-10-24T05:12:01.444Z,99021.53
2023-10-24T05:13:03.176Z,99027.66
2023-10-24T05:14:04.815Z,99032.06
2023-10-24T05:15:06.913Z,99036.56
2023-10-24T05:16:08.516Z,99039.53
2023-10-24T05:17:10.177Z,99036.41
2023-10-24T05:18:12.861Z,99031.09
2023-10-24T05:19:14.551Z,99037.09
2023-10-24T05:20:18.378Z,99033.94
2023-10-24T05:21:20.019Z,99035.31
2023-10-24T05:22:21.644Z,99042.25
2023-10-24T05:23:23.260Z,99045.25
2023-10-24T05:24:24.860Z,99044.53
2023-10-24T05:25:26.464Z,99040.28
2023-10-24T05:26:28.160Z,99046.16
2023-10-24T05:27:30.252Z,99047.06
2023-10-24T05:28:33.496Z,99050.53
2023-10-24T05:29:36.053Z,99043.13
2023-10-24T05:30:40.385Z,99047.41
2023-10-24T05:31:42.090Z,99047.16
2023-10-24T05:32:45.013Z,99040.91
2023-10-24T05:33:46.823Z,99047.47
2023-10-24T05:34:48.496Z,99046.19
2023-10-24T05:35:50.310Z,99046.34
2023-10-24T05:36:52.036Z,99055.78
2023-10-24T05:37:53.752Z,99058.78
2023-10-24T05:38:56.823Z,99048.94
2023-10-24T05:39:58.519Z,99060.25
2023-10-24T05:41:01.257Z,99064.28
2023-10-24T05:42:03.008Z,99057.09
2023-10-24T05:43:05.970Z,99067.06
2023-10-24T05:44:07.561Z,99071.69
2023-10-24T05:45:09.808Z,99066.91
2023-10-24T05:46:11.508Z,99066.44
2023-10-24T05:47:13.190Z,99074.50
2023-10-24T05:48:14.756Z,99067.66
2023-10-24T05:49:16.452Z,99080.03
2023-10-24T05:50:20.158Z,99080.56
2023-10-24T05:51:30.201Z,99080.91
2023-10-24T05:52:32.804Z,99071.13
2023-10-24T05:53:34.446Z,99077.09
2023-10-24T05:54:37.320Z,99080.41
2023-10-24T05:55:40.823Z,99086.38
2023-10-24T05:56:42.498Z,99075.78
2023-10-24T05:57:44.194Z,99085.69
2023-10-24T05:58:46.067Z,99080.38
2023-10-24T05:59:47.664Z,99086.34
2023-10-24T06:00:49.263Z,99083.16
2023-10-24T06:01:50.966Z,99086.50
2023-10-24T06:02:52.697Z,99088.16
2023-10-24T06:03:54.373Z,99086.38
2023-10-24T06:04:56.056Z,99078.94
2023-10-24T06:05:57.684Z,99084.91
2023-10-24T06:06:59.279Z,99083.94
2023-10-24T06:08:01.011Z,99090.94
2023-10-24T06:09:03.872Z,99094.81
2023-10-24T06:10:06.921Z,99089.75
2023-10-24T06:11:08.720Z,99087.16
2023-10-24T06:12:10.425Z,99078.91
2023-10-24T06:13:12.284Z,99093.97
2023-10-24T06:14:13.884Z,99099.94
2023-10-24T06:15:15.499Z,99092.22
2023-10-24T06:16:18.556Z,99098.44
2023-10-24T06:17:20.689Z,99095.50
2023-10-24T06:18:24.375Z,99092.88
2023-10-24T06:19:28.247Z,99090.28
2023-10-24T06:20:29.921Z,99098.06
2023-10-24T06:21:31.541Z,99107.53
2023-10-24T06:22:33.166Z,99098.47
2023-10-24T06:23:36.356Z,99095.31
2023-10-24T06:24:38.433Z,99100.47
2023-10-24T06:25:43.599Z,99099.72
2023-10-24T06:26:45.257Z,99106.69
2023-10-24T06:27:46.891Z,99097.91
2023-10-24T06:28:48.612Z,99085.66
2023-10-24T06:29:50.258Z,99098.00
2023-10-24T06:30:59.102Z,99098.84
2023-10-24T06:32:00.916Z,99102.91
2023-10-24T06:33:03.707Z,99096.75
2023-10-24T06:34:05.446Z,99098.41
2023-10-24T06:35:07.382Z,99097.38
2023-10-24T06:36:09.518Z,99096.34
2023-10-24T06:37:11.205Z,99098.53
2023-10-24T06:38:12.890Z,99091.91
2023-10-24T06:39:14.477Z,99086.56
2023-10-24T06:40:16.231Z,99090.34
2023-10-24T06:41:17.848Z,99088.00
2023-10-24T06:42:19.413Z,99092.03
2023-10-24T06:43:22.067Z,99088.84
2023-10-24T06:44:24.081Z,99088.34
2023-10-24T06:45:27.427Z,99086.50
2023-10-24T06:46:30.512Z,99085.22
2023-10-24T06:47:32.131Z,99071.00
2023-10-24T06:48:33.803Z,99083.38
2023-10-24T06:49:35.503Z,99074.03
2023-10-24T06:50:37.278Z,99081.56
2023-10-24T06:51:38.882Z,99082.38
2023-10-24T06:52:43.426Z,99076.81
2023-10-24T06:53:45.262Z,99076.56
2023-10-24T06:54:46.913Z,99074.38
2023-10-24T06:55:48.509Z,99083.25
2023-10-24T06:56:50.200Z,99071.09
2023-10-24T06:57:52.161Z,99075.25
2023-10-24T06:58:53.831Z,99070.03
2023-10-24T06:59:56.656Z,99071.44
2023-10-24T07:00:58.382Z,99068.22
2023-10-24T07:02:00.657Z,99061.91
2023-10-24T07:03:02.501Z,99053.25
2023-10-24T07:04:04.476Z,99062.44
2023-10-24T07:05:06.413Z,99056.88
2023-10-24T07:06:08.146Z,99056.50
2023-10-24T07:07:09.901Z,99053.63
2023-10-24T07:08:11.468Z,99050.44
2023-10-24T07:09:14.099Z,99059.81
2023-10-24T07:10:16.295Z,99054.75
2023-10-24T07:11:17.926Z,99058.16
2023-10-24T07:12:21.705Z,99055.78
2023-10-24T07:13:23.404Z,99045.38
2023-10-24T07:14:25.192Z,99043.81
2023-10-24T07:15:26.822Z,99056.34
2023-10-24T07:16:28.693Z,99051.06
2023-10-24T07:17:31.497Z,99051.38
2023-10-24T07:18:33.128Z,99052.47
2023-10-24T07:19:34.793Z,99047.88
2023-10-24T07:20:40.210Z,99046.28
2023-10-24T07:21:41.839Z,99046.41
2023-10-24T07:22:43.477Z,99041.84
2023-10-24T07:23:45.168Z,99045.06
2023-10-24T07:24:46.783Z,99048.13
2023-10-24T07:25:57.136Z,99039.50
2023-10-24T07:26:58.734Z,99041.56
2023-10-24T07:28:00.344Z,99037.06
2023-10-24T07:29:02.056Z,99038.50
2023-10-24T07:30:04.036Z,99036.34
2023-10-24T07:31:05.673Z,99039.66
2023-10-24T07:32:07.433Z,99033.69
2023-10-24T07:33:09.074Z,99029.28
2023-10-24T07:34:10.685Z,99037.84
2023-10-24T07:35:12.302Z,99032.81
2023-10-24T07:36:13.905Z,99026.78
2023-10-24T07:37:15.607Z,99030.41
2023-10-24T07:38:17.214Z,99035.78
2023-10-24T07:39:18.842Z,99037.06
2023-10-24T07:40:20.641Z,99041.66
2023-10-24T07:41:22.428Z,99040.16
2023-10-24T07:42:24.057Z,99040.50
2023-10-24T07:43:25.743Z,99043.31
2023-10-24T07:44:27.421Z,99041.38
2023-10-24T07:45:29.062Z,99042.09
2023-10-24T07:46:30.798Z,99043.44
2023-10-24T07:47:32.901Z,99044.34
2023-10-24T07:48:34.672Z,99034.97
2023-10-24T07:49:36.660Z,99035.16
2023-10-24T07:50:38.310Z,99036.53
2023-10-24T07:51:39.878Z,99032.66
2023-10-24T07:52:41.596Z,99028.34
2023-10-24T07:53:43.198Z,99029.34
2023-10-24T07:54:44.763Z,99024.16
2023-10-24T07:55:46.508Z,99026.84
2023-10-24T07:56:48.232Z,99022.22
2023-10-24T07:57:52.964Z,99019.66
2023-10-24T07:58:54.605Z,99015.28
2023-10-24T07:59:56.243Z,99023.47
2023-10-24T08:00:57.903Z,99021.66
2023-10-24T08:02:00.064Z,99024.13
2023-10-24T08:03:02.103Z,99017.22
2023-10-24T08:04:03.981Z,99021.75
2023-10-24T08:05:06.157Z,99016.75
2023-10-24T08:06:07.812Z,99020.63
2023-10-24T08:07:09.391Z,99021.50
2023-10-24T08:08:10.975Z,99023.09
2023-10-24T08:09:12.597Z,99013.91
2023-10-24T08:10:14.209Z,99007.44
2023-10-24T08:11:15.774Z,99002.97
2023-10-24T08:12:17.379Z,99012.16
2023-10-24T08:13:18.929Z,99001.41
2023-10-24T08:14:20.602Z,99003.72
2023-10-24T08:15:22.246Z,99005.09
2023-10-24T08:16:23.978Z,98999.06
2023-10-24T08:17:25.769Z,99010.38
2023-10-24T08:18:27.446Z,98994.94
2023-10-24T08:19:29.154Z,99000.25
2023-10-24T08:20:30.773Z,98992.97
2023-10-24T08:21:32.412Z,98997.69
2023-10-24T08:22:34.075Z,98999.03
2023-10-24T08:23:35.759Z,98985.81
2023-10-24T08:24:37.333Z,98992.28
2023-10-24T08:25:38.941Z,98989.22
2023-10-24T08:26:41.799Z,98990.34
2023-10-24T08:27:46.679Z,98987.06
2023-10-24T08:28:48.423Z,98986.97
2023-10-24T08:29:50.039Z,98980.09
2023-10-24T08:30:51.641Z,98982.25
2023-10-24T08:32:00.717Z,98981.13
2023-10-24T08:33:03.084Z,98981.91
2023-10-24T08:34:04.728Z,98981.16
2023-10-24T08:35:06.658Z,98978.31
2023-10-24T08:36:08.232Z,98973.53
2023-10-24T08:37:10.219Z,98974.41
2023-10-24T08:38:13.139Z,98972.31
2023-10-24T08:39:15.221Z,98980.63
2023-10-24T08:40:16.871Z,98982.34
2023-10-24T08:41:21.034Z,98981.34
2023-10-24T08:42:23.259Z,98976.50
2023-10-24T08:43:26.180Z,98977.38
2023-10-24T08:44:28.557Z,98977.56
2023-10-24T08:45:31.902Z,98972.16
2023-10-24T08:46:34.050Z,98964.91
2023-10-24T08:47:36.887Z,98969.50
2023-10-24T08:48:38.685Z,98977.84
2023-10-24T08:49:40.813Z,98977.13
2023-10-24T08:50:44.020Z,98974.69
2023-10-24T08:51:46.471Z,98971.22
2023-10-24T08:52:48.175Z,98978.34
2023-10-24T08:53:50.177Z,98980.03
2023-10-24T08:54:52.693Z,98979.44
2023-10-24T08:55:55.807Z,98977.31
2023-10-24T08:56:58.242Z,98973.41
2023-10-24T08:58:01.708Z,98980.59
2023-10-24T08:59:05.977Z,98981.47
2023-10-24T09:00:12.904Z,98978.19
2023-10-24T09:01:14.994Z,98976.28
2023-10-24T09:02:18.178Z,98979.28
2023-10-24T09:03:20.040Z,98983.50
2023-10-24T09:04:22.749Z,98980.28
2023-10-24T09:05:29.000Z,98981.78
2023-10-24T09:06:34.397Z,98973.69
2023-10-24T09:07:37.103Z,98969.25
2023-10-24T09:08:38.788Z,98970.34
2023-10-24T09:09:40.444Z,98968.47
2023-10-24T09:10:42.178Z,98968.09
2023-10-24T09:11:58.289Z,98955.88
2023-10-24T09:12:59.939Z,98964.16
2023-10-24T09:14:01.582Z,98965.19
2023-10-24T09:15:03.553Z,98946.38
2023-10-24T09:16:07.590Z,98957.72
2023-10-24T09:17:09.294Z,98957.06
2023-10-24T09:18:11.184Z,98957.25
2023-10-24T09:19:16.472Z,98950.28
2023-10-24T09:20:20.141Z,98959.91
2023-10-24T09:21:21.805Z,98957.16
2023-10-24T09:22:24.036Z,98950.59
2023-10-24T09:23:25.714Z,98950.72
2023-10-24T09:24:27.517Z,98952.22
2023-10-24T09:25:30.057Z,98962.69
2023-10-24T09:26:31.689Z,98950.84
2023-10-24T09:27:33.296Z,98950.78
2023-10-24T09:28:35.298Z,98952.00
2023-10-24T09:29:37.530Z,98947.78
2023-10-24T09:30:40.684Z,98948.53
2023-10-24T09:31:42.857Z,98945.34
2023-10-24T09:32:45.445Z,98941.28
2023-10-24T09:33:47.984Z,98942.53
2023-10-24T09:34:49.995Z,98932.94
2023-10-24T09:36:05.761Z,98929.91
2023-10-24T09:37:18.113Z,98929.16
2023-10-24T09:38:26.131Z,98935.22
2023-10-24T09:39:27.732Z,98930.16
2023-10-24T09:40:40.711Z,98920.88
2023-10-24T09:41:43.940Z,98912.91
2023-10-24T09:42:48.156Z,98917.75
2023-10-24T09:43:49.905Z,98912.59
2023-10-24T09:44:55.338Z,98913.88
2023-10-24T09:45:57.703Z,98913.59
2023-10-24T09:46:59.566Z,98903.31
2023-10-24T09:48:02.188Z,98906.84
2023-10-24T09:49:05.727Z,98908.00
2023-10-24T09:50:09.206Z,98899.22
2023-10-24T09:51:12.846Z,98897.59
2023-10-24T09:52:18.114Z,98899.97
2023-10-24T09:53:20.505Z,98893.34
2023-10-24T09:54:23.292Z,98896.88
2023-10-24T09:55:25.283Z,98894.59
2023-10-24T09:56:29.073Z,98888.75
2023-10-24T09:57:31.502Z,98882.94
2023-10-24T09:58:35.847Z,98879.06
2023-10-24T09:59:38.982Z,98890.84
2023-10-24T10:00:40.883Z,98879.91
2023-10-24T10:01:54.213Z,98878.41
2023-10-24T10:03:04.603Z,98879.19
2023-10-24T10:04:06.793Z,98885.47
2023-10-24T10:05:08.944Z,98880.03
2023-10-24T10:06:15.425Z,98870.84
2023-10-24T10:07:18.812Z,98871.22
2023-10-24T10:08:22.949Z,98866.84
2023-10-24T10:09:24.622Z,98864.81
2023-10-24T10:10:26.481Z,98867.56
2023-10-24T10:11:29.072Z,98863.22
2023-10-24T10:12:32.532Z,98863.94
2023-10-24T10:13:39.748Z,98863.94
2023-10-24T10:15:01.375Z,98854.91
2023-10-24T10:16:21.611Z,98862.84
2023-10-24T10:17:39.679Z,98860.19
2023-10-24T10:19:15.954Z,98858.66
2023-10-24T10:20:56.281Z,98850.09
2023-10-24T10:22:23.774Z,98845.41
2023-10-24T10:23:28.079Z,98857.50
2023-10-24T10:24:38.839Z,98842.28
2023-10-24T10:25:43.336Z,98847.53
2023-10-24T10:27:22.533Z,98848.66
2023-10-24T10:28:43.132Z,98847.84
2023-10-24T10:30:25.853Z,98851.38
2023-10-24T10:32:42.302Z,98843.63
2023-10-24T10:33:22.824Z,98843.84
2023-10-24T10:34:36.109Z,98849.72
2023-10-24T10:36:09.467Z,98843.44
2023-10-24T10:37:11.263Z,98834.75
2023-10-24T10:38:12.923Z,98845.22
2023-10-24T10:39:14.631Z,98837.22
2023-10-24T10:40:16.284Z,98841.03
2023-10-24T10:41:24.151Z,98839.75
2023-10-24T10:42:51.212Z,98840.94
2023-10-24T10:43:59.500Z,98839.84
2023-10-24T10:45:27.231Z,98838.78
2023-10-24T10:46:30.650Z,98835.44
2023-10-24T10:47:32.345Z,98831.38
2023-10-24T10:48:34.092Z,98830.16
2023-10-24T10:49:40.315Z,98835.78
2023-10-24T10:50:42.940Z,98834.06
2023-10-24T10:51:44.641Z,98821.00
2023-10-24T10:53:12.048Z,98819.41
2023-10-24T10:54:44.236Z,98822.59
2023-10-24T10:55:51.671Z,98825.47
2023-10-24T10:56:58.379Z,98826.06
2023-10-24T10:58:13.122Z,98829.31
2023-10-24T10:59:58.788Z,98829.16
2023-10-24T11:01:21.006Z,98813.94
2023-10-24T11:02:56.090Z,98824.25
2023-10-24T11:03:59.695Z,98826.19
2023-10-24T11:05:02.976Z,98822.66
2023-10-24T11:06:13.388Z,98809.34
2023-10-24T11:07:15.072Z,98810.84
2023-10-24T11:08:20.937Z,98810.94
2023-10-24T11:09:43.698Z,98818.59
2023-10-24T11:10:55.633Z,98815.09
2023-10-24T11:12:22.089Z,98820.28
2023-10-24T11:13:40.691Z,98814.47
2023-10-24T11:14:42.779Z,98818.78
2023-10-24T11:15:54.411Z,98817.97
2023-10-24T11:16:56.447Z,98811.88
2023-10-24T11:17:58.552Z,98811.63
2023-10-24T11:19:00.168Z,98809.34
2023-10-24T11:20:14.448Z,98807.41
2023-10-24T11:21:23.427Z,98803.09
2023-10-24T11:22:25.259Z,98791.31
2023-10-24T11:23:29.640Z,98805.59
2023-10-24T11:24:31.392Z,98802.41
2023-10-24T11:25:33.273Z,98799.69
2023-10-24T11:26:35.348Z,98795.63
2023-10-24T11:27:37.214Z,98792.00
2023-10-24T11:28:39.615Z,98797.56
2023-10-24T11:29:41.514Z,98792.56
2023-10-24T11:30:43.344Z,98795.31
2023-10-24T11:31:48.367Z,98794.31
2023-10-24T11:32:53.348Z,98785.72
2023-10-24T11:33:57.926Z,98787.06
2023-10-24T11:34:59.676Z,98792.38
2023-10-24T11:36:01.762Z,98788.66
2023-10-24T11:37:03.963Z,98784.34
2023-10-24T11:38:05.792Z,98783.22
2023-10-24T11:39:08.644Z,98779.47
2023-10-24T11:40:10.747Z,98785.59
2023-10-24T11:41:12.423Z,98777.06
2023-10-24T11:42:14.649Z,98774.22
2023-10-24T11:43:18.912Z,98778.78
2023-10-24T11:44:22.532Z,98775.59
2023-10-24T11:45:24.199Z,98776.97
2023-10-24T11:46:26.102Z,98770.63
2023-10-24T11:47:27.806Z,98774.94
2023-10-24T11:48:29.432Z,98768.56
2023-10-24T11:49:34.743Z,98758.94
2023-10-24T11:50:46.936Z,98764.84
2023-10-24T11:51:50.217Z,98777.69
2023-10-24T11:52:51.969Z,98768.56
2023-10-24T11:54:04.404Z,98770.84
2023-10-24T11:55:07.880Z,98766.09
2023-10-24T11:56:09.938Z,98773.13
2023-10-24T11:57:12.462Z,98769.00
2023-10-24T11:58:14.152Z,98761.78
2023-10-24T11:59:15.887Z,98763.28
2023-10-24T12:00:18.371Z,98770.31
2023-10-24T12:01:20.680Z,98757.47
2023-10-24T12:02:23.215Z,98760.56
2023-10-24T12:03:25.100Z,98760.66
2023-10-24T12:04:26.932Z,98758.69
2023-10-24T12:05:28.508Z,98741.78
2023-10-24T12:06:30.725Z,98749.41
2023-10-24T12:07:33.659Z,98753.00
2023-10-24T12:08:37.194Z,98744.63
2023-10-24T12:09:38.803Z,98741.91
2023-10-24T12:10:40.450Z,98750.94
2023-10-24T12:11:42.056Z,98751.88
2023-10-24T12:12:45.598Z,98747.34
2023-10-24T12:13:48.060Z,98734.84
2023-10-24T12:14:50.102Z,98732.69
2023-10-24T12:15:52.158Z,98738.16
2023-10-24T12:16:59.428Z,98744.84
2023-10-24T12:18:05.495Z,98731.72
2023-10-24T12:19:07.230Z,98725.81
2023-10-24T12:20:09.448Z,98734.84
2023-10-24T12:21:12.793Z,98723.66
2023-10-24T12:22:14.648Z,98728.94
2023-10-24T12:23:18.087Z,98733.59
2023-10-24T12:24:19.722Z,98731.41